sensor_id;sensor_type;location;lat;lon;timestamp;pressure;altitude;pressure_sealevel;temperature;humidity
9538;BME280;4807;48.024;11.726;2024-01-07T00:01:17;94123.81;;;1.31;99.04
9538;BME280;4807;48.024;11.726;2024-01-07T00:04:25;94113.84;;;1.26;98.82
9538;BME280;4807;48.024;11.726;2024-01-07T00:07:35;94113.69;;;1.20;99.65
9538;BME280;4807;48.024;11.726;2024-01-07T00:10:44;94117.75;;;1.22;99.12
9538;BME280;4807;48.024;11.726;2024-01-07T00:13:52;94110.41;;;1.18;99.75
9538;BME280;4807;48.024;11.726;2024-01-07T00:17:00;94112.50;;;1.22;99.15
9538;BME280;4807;48.024;11.726;2024-01-07T00:20:10;94113.31;;;1.23;100.00
9538;BME280;4807;48.024;11.726;2024-01-07T00:23:20;94114.81;;;1.25;99.43
9538;BME280;4807;48.024;11.726;2024-01-07T00:26:28;94116.44;;;1.26;99.24
9538;BME280;4807;48.024;11.726;2024-01-07T00:29:36;94112.69;;;1.29;99.75
9538;BME280;4807;48.024;11.726;2024-01-07T00:32:46;94109.25;;;1.36;99.11
9538;BME280;4807;48.024;11.726;2024-01-07T00:35:55;94111.03;;;1.36;99.23
9538;BME280;4807;48.024;11.726;2024-01-07T00:39:05;94110.53;;;1.40;98.72
9538;BME280;4807;48.024;11.726;2024-01-07T00:42:14;94109.72;;;1.40;99.46
9538;BME280;4807;48.024;11.726;2024-01-07T00:45:22;94113.00;;;1.42;99.50
9538;BME280;4807;48.024;11.726;2024-01-07T00:48:31;94105.63;;;1.37;98.87
9538;BME280;4807;48.024;11.726;2024-01-07T00:51:42;94109.72;;;1.32;99.06
9538;BME280;4807;48.024;11.726;2024-01-07T00:54:51;94104.97;;;1.35;98.63
9538;BME280;4807;48.024;11.726;2024-01-07T00:57:59;94102.19;;;1.37;98.31
9538;BME280;4807;48.024;11.726;2024-01-07T01:01:08;94109.41;;;1.43;97.95
9538;BME280;4807;48.024;11.726;2024-01-07T01:04:16;94110.38;;;1.34;98.72
9538;BME280;4807;48.024;11.726;2024-01-07T01:07:25;94114.97;;;1.32;98.33
9538;BME280;4807;48.024;11.726;2024-01-07T01:10:34;94112.34;;;1.32;98.32
9538;BME280;4807;48.024;11.726;2024-01-07T01:13:43;94119.22;;;1.33;99.01
9538;BME280;4807;48.024;11.726;2024-01-07T01:16:51;94117.75;;;1.22;98.13
9538;BME280;4807;48.024;11.726;2024-01-07T01:20:00;94116.78;;;1.23;98.24
9538;BME280;4807;48.024;11.726;2024-01-07T01:23:08;94121.38;;;1.37;98.17
9538;BME280;4807;48.024;11.726;2024-01-07T01:26:18;94120.38;;;1.22;98.61
9538;BME280;4807;48.024;11.726;2024-01-07T01:29:26;94115.94;;;1.31;98.87
9538;BME280;4807;48.024;11.726;2024-01-07T01:32:34;94122.00;;;1.31;98.96
9538;BME280;4807;48.024;11.726;2024-01-07T01:35:43;94125.13;;;1.27;99.36
9538;BME280;4807;48.024;11.726;2024-01-07T01:38:52;94116.44;;;1.26;99.42
9538;BME280;4807;48.024;11.726;2024-01-07T01:42:02;94114.34;;;1.30;98.26
9538;BME280;4807;48.024;11.726;2024-01-07T01:45:10;94122.53;;;1.27;98.36
9538;BME280;4807;48.024;11.726;2024-01-07T01:48:19;94116.31;;;1.20;98.91
9538;BME280;4807;48.024;11.726;2024-01-07T01:51:27;94113.00;;;1.26;99.42
9538;BME280;4807;48.024;11.726;2024-01-07T01:54:36;94114.81;;;1.17;99.47
9538;BME280;4807;48.024;11.726;2024-01-07T01:57:47;94113.66;;;1.28;98.79
9538;BME280;4807;48.024;11.726;2024-01-07T02:00:56;94110.88;;;1.29;98.86
9538;BME280;4807;48.024;11.726;2024-01-07T02:04:05;94110.91;;;1.21;99.04
9538;BME280;4807;48.024;11.726;2024-01-07T02:07:13;94108.09;;;1.23;99.36
9538;BME280;4807;48.024;11.726;2024-01-07T02:10:22;94113.00;;;1.18;99.42
9538;BME280;4807;48.024;11.726;2024-01-07T02:13:31;94105.97;;;1.18;99.35
9538;BME280;4807;48.024;11.726;2024-01-07T02:16:41;94106.94;;;1.17;99.18
9538;BME280;4807;48.024;11.726;2024-01-07T02:19:50;94108.09;;;1.14;99.70
9538;BME280;4807;48.024;11.726;2024-01-07T02:23:00;94107.09;;;1.24;98.92
9538;BME280;4807;48.024;11.726;2024-01-07T02:26:09;94108.75;;;1.17;99.35
9538;BME280;4807;48.024;11.726;2024-01-07T02:29:18;94110.06;;;1.21;99.38
9538;BME280;4807;48.024;11.726;2024-01-07T02:32:26;94106.47;;;1.22;99.10
9538;BME280;4807;48.024;11.726;2024-01-07T02:35:34;94120.56;;;1.21;99.59
9538;BME280;4807;48.024;11.726;2024-01-07T02:38:42;94112.50;;;1.14;99.36
9538;BME280;4807;48.024;11.726;2024-01-07T02:41:52;94107.44;;;1.12;100.00
9538;BME280;4807;48.024;11.726;2024-01-07T02:45:00;94114.97;;;1.07;100.00
9538;BME280;4807;48.024;11.726;2024-01-07T02:48:08;94114.97;;;1.07;100.00
9538;BME280;4807;48.024;11.726;2024-01-07T02:51:17;94109.25;;;1.04;100.00
9538;BME280;4807;48.024;11.726;2024-01-07T02:54:25;94102.53;;;1.09;100.00
9538;BME280;4807;48.024;11.726;2024-01-07T02:57:35;94103.03;;;1.13;100.00
9538;BME280;4807;48.024;11.726;2024-01-07T03:00:43;94100.22;;;1.14;99.96
9538;BME280;4807;48.024;11.726;2024-01-07T03:03:52;94100.72;;;1.10;100.00
9538;BME280;4807;48.024;11.726;2024-01-07T03:07:00;94096.97;;;1.12;100.00
9538;BME280;4807;48.024;11.726;2024-01-07T03:10:09;94107.78;;;1.09;100.00
9538;BME280;4807;48.024;11.726;2024-01-07T03:13:19;94097.78;;;1.13;100.00
9538;BME280;4807;48.024;11.726;2024-01-07T03:16:27;94098.63;;;1.13;100.00
9538;BME280;4807;48.024;11.726;2024-01-07T03:19:35;94096.97;;;1.12;100.00
9538;BME280;4807;48.024;11.726;2024-01-07T03:22:43;94100.41;;;1.05;100.00
9538;BME280;4807;48.024;11.726;2024-01-07T03:25:52;94107.44;;;1.12;99.88
9538;BME280;4807;48.024;11.726;2024-01-07T03:29:01;94114.16;;;1.07;99.95
9538;BME280;4807;48.024;11.726;2024-01-07T03:32:09;94112.69;;;1.12;100.00
9538;BME280;4807;48.024;11.726;2024-01-07T03:35:18;94108.91;;;1.15;99.51
9538;BME280;4807;48.024;11.726;2024-01-07T03:38:26;94106.94;;;1.09;100.00
9538;BME280;4807;48.024;11.726;2024-01-07T03:41:39;94108.75;;;1.17;99.43
9538;BME280;4807;48.024;11.726;2024-01-07T03:44:49;94107.78;;;1.09;99.59
9538;BME280;4807;48.024;11.726;2024-01-07T03:47:57;94106.13;;;1.17;99.95
9538;BME280;4807;48.024;11.726;2024-01-07T03:51:06;94111.72;;;1.05;99.82
9538;BME280;4807;48.024;11.726;2024-01-07T03:54:14;94113.31;;;1.06;100.00
9538;BME280;4807;48.024;11.726;2024-01-07T03:57:22;94111.53;;;0.99;100.00
9538;BME280;4807;48.024;11.726;2024-01-07T04:00:32;94123.19;;;1.04;100.00
9538;BME280;4807;48.024;11.726;2024-01-07T04:03:40;94119.91;;;1.02;100.00
9538;BME280;4807;48.024;11.726;2024-01-07T04:06:48;94122.50;;;0.94;100.00
9538;BME280;4807;48.024;11.726;2024-01-07T04:09:57;94119.75;;;1.04;100.00
9538;BME280;4807;48.024;11.726;2024-01-07T04:13:05;94123.81;;;1.06;100.00
9538;BME280;4807;48.024;11.726;2024-01-07T04:16:18;94127.91;;;1.09;100.00
9538;BME280;4807;48.024;11.726;2024-01-07T04:19:26;94129.88;;;1.07;100.00
9538;BME280;4807;48.024;11.726;2024-01-07T04:22:35;94133.00;;;1.02;100.00
9538;BME280;4807;48.024;11.726;2024-01-07T04:25:43;94132.19;;;1.02;100.00
9538;BME280;4807;48.024;11.726;2024-01-07T04:28:52;94135.94;;;0.99;100.00
9538;BME280;4807;48.024;11.726;2024-01-07T04:32:02;94136.75;;;1.08;100.00
9538;BME280;4807;48.024;11.726;2024-01-07T04:35:10;94135.47;;;1.04;100.00
9538;BME280;4807;48.024;11.726;2024-01-07T04:38:18;94144.16;;;1.12;100.00
9538;BME280;4807;48.024;11.726;2024-01-07T04:41:27;94139.91;;;1.20;100.00
9538;BME280;4807;48.024;11.726;2024-01-07T04:44:35;94142.84;;;1.17;99.65
9538;BME280;4807;48.024;11.726;2024-01-07T04:47:44;94152.34;;;1.18;99.88
9538;BME280;4807;48.024;11.726;2024-01-07T04:50:53;94153.00;;;1.11;100.00
9538;BME280;4807;48.024;11.726;2024-01-07T04:54:02;94147.59;;;1.05;100.00
9538;BME280;4807;48.024;11.726;2024-01-07T04:57:10;94151.66;;;0.99;100.00
9538;BME280;4807;48.024;11.726;2024-01-07T05:00:19;94150.38;;;0.95;100.00
9538;BME280;4807;48.024;11.726;2024-01-07T05:03:28;94159.88;;;0.96;100.00
9538;BME280;4807;48.024;11.726;2024-01-07T05:06:37;94162.31;;;0.98;100.00
9538;BME280;4807;48.024;11.726;2024-01-07T05:09:45;94159.88;;;0.96;100.00
9538;BME280;4807;48.024;11.726;2024-01-07T05:12:53;94171.66;;;0.92;100.00
9538;BME280;4807;48.024;11.726;2024-01-07T05:16:02;94168.19;;;0.92;100.00
9538;BME280;4807;48.024;11.726;2024-01-07T05:19:12;94167.06;;;0.94;100.00
9538;BME280;4807;48.024;11.726;2024-01-07T05:22:21;94170.97;;;0.90;100.00
9538;BME280;4807;48.024;11.726;2024-01-07T05:25:30;94170.50;;;0.87;100.00
9538;BME280;4807;48.024;11.726;2024-01-07T05:28:38;94175.56;;;0.80;100.00
9538;BME280;4807;48.024;11.726;2024-01-07T05:31:46;94174.56;;;0.73;100.00
9538;BME280;4807;48.024;11.726;2024-01-07T05:34:57;94182.88;;;0.68;100.00
9538;BME280;4807;48.024;11.726;2024-01-07T05:38:06;94177.16;;;0.65;100.00
9538;BME280;4807;48.024;11.726;2024-01-07T05:41:14;94181.41;;;0.66;100.00
9538;BME280;4807;48.024;11.726;2024-01-07T05:44:22;94185.34;;;0.70;100.00
9538;BME280;4807;48.024;11.726;2024-01-07T05:47:34;94185.66;;;0.67;100.00
9538;BME280;4807;48.024;11.726;2024-01-07T05:50:44;94191.56;;;0.69;100.00
9538;BME280;4807;48.024;11.726;2024-01-07T05:53:52;94194.72;;;0.72;100.00
9538;BME280;4807;48.024;11.726;2024-01-07T05:57:01;94190.59;;;0.70;100.00
9538;BME280;4807;48.024;11.726;2024-01-07T06:00:10;94189.63;;;0.71;100.00
9538;BME280;4807;48.024;11.726;2024-01-07T06:03:19;94197.78;;;0.68;100.00
9538;BME280;4807;48.024;11.726;2024-01-07T06:06:29;94196.97;;;0.67;100.00
9538;BME280;4807;48.024;11.726;2024-01-07T06:09:37;94203.38;;;0.65;100.00
9538;BME280;4807;48.024;11.726;2024-01-07T06:12:46;94189.25;;;0.66;100.00
9538;BME280;4807;48.024;11.726;2024-01-07T06:15:56;94202.53;;;0.64;100.00
9538;BME280;4807;48.024;11.726;2024-01-07T06:19:04;94201.06;;;0.62;100.00
9538;BME280;4807;48.024;11.726;2024-01-07T06:22:14;94202.84;;;0.61;100.00
9538;BME280;4807;48.024;11.726;2024-01-07T06:25:22;94207.94;;;0.63;100.00
9538;BME280;4807;48.024;11.726;2024-01-07T06:28:33;94206.59;;;0.59;100.00
9538;BME280;4807;48.024;11.726;2024-01-07T06:31:43;94207.41;;;0.59;100.00
9538;BME280;4807;48.024;11.726;2024-01-07T06:34:52;94217.06;;;0.59;100.00
9538;BME280;4807;48.024;11.726;2024-01-07T06:38:02;94215.28;;;0.59;100.00
9538;BME280;4807;48.024;11.726;2024-01-07T06:41:11;94218.88;;;0.58;100.00
9538;BME280;4807;48.024;11.726;2024-01-07T06:44:19;94222.47;;;0.57;100.00
9538;BME280;4807;48.024;11.726;2024-01-07T06:47:28;94225.75;;;0.59;100.00
9538;BME280;4807;48.024;11.726;2024-01-07T06:50:36;94230.16;;;0.59;100.00
9538;BME280;4807;48.024;11.726;2024-01-07T06:53:46;94238.88;;;0.67;100.00
9538;BME280;4807;48.024;11.726;2024-01-07T06:56:54;94241.03;;;0.72;100.00
9538;BME280;4807;48.024;11.726;2024-01-07T07:00:03;94231.19;;;0.74;100.00
9538;BME280;4807;48.024;11.726;2024-01-07T07:03:12;94244.03;;;0.93;100.00
9538;BME280;4807;48.024;11.726;2024-01-07T07:06:20;94237.84;;;1.02;100.00
9538;BME280;4807;48.024;11.726;2024-01-07T07:09:30;94246.41;;;1.12;100.00
9538;BME280;4807;48.024;11.726;2024-01-07T07:12:38;94240.97;;;1.22;100.00
9538;BME280;4807;48.024;11.726;2024-01-07T07:15:46;94244.94;;;1.34;100.00
9538;BME280;4807;48.024;11.726;2024-01-07T07:18:55;94244.94;;;1.34;100.00
9538;BME280;4807;48.024;11.726;2024-01-07T07:22:04;94252.00;;;1.42;100.00
9538;BME280;4807;48.024;11.726;2024-01-07T07:25:14;94249.38;;;1.50;99.55
9538;BME280;4807;48.024;11.726;2024-01-07T07:28:22;94254.47;;;1.51;99.08
9538;BME280;4807;48.024;11.726;2024-01-07T07:31:30;94261.69;;;1.49;98.22
9538;BME280;4807;48.024;11.726;2024-01-07T07:34:39;94265.28;;;1.48;98.54
9538;BME280;4807;48.024;11.726;2024-01-07T07:37:47;94273.31;;;1.47;97.59
9538;BME280;4807;48.024;11.726;2024-01-07T07:40:57;94274.31;;;1.46;97.91
9538;BME280;4807;48.024;11.726;2024-01-07T07:44:06;94272.66;;;1.45;97.63
9538;BME280;4807;48.024;11.726;2024-01-07T07:47:23;94290.06;;;1.54;97.41
9538;BME280;4807;48.024;11.726;2024-01-07T07:50:31;94279.38;;;1.56;96.99
9538;BME280;4807;48.024;11.726;2024-01-07T07:53:43;94283.50;;;1.50;97.07
9538;BME280;4807;48.024;11.726;2024-01-07T07:56:52;94292.00;;;1.44;97.27
9538;BME280;4807;48.024;11.726;2024-01-07T08:00:01;94289.69;;;1.41;97.33
9538;BME280;4807;48.024;11.726;2024-01-07T08:03:11;94303.47;;;1.35;96.55
9538;BME280;4807;48.024;11.726;2024-01-07T08:06:19;94300.31;;;1.31;97.59
9538;BME280;4807;48.024;11.726;2024-01-07T08:09:28;94296.59;;;1.42;97.85
9538;BME280;4807;48.024;11.726;2024-01-07T08:12:37;94305.94;;;1.36;97.56
9538;BME280;4807;48.024;11.726;2024-01-07T08:15:46;94313.13;;;1.34;97.48
9538;BME280;4807;48.024;11.726;2024-01-07T08:18:54;94305.44;;;1.41;97.56
9538;BME280;4807;48.024;11.726;2024-01-07T08:22:04;94323.78;;;1.41;97.48
9538;BME280;4807;48.024;11.726;2024-01-07T08:25:13;94324.94;;;1.38;97.38
9538;BME280;4807;48.024;11.726;2024-01-07T08:28:23;94329.06;;;1.49;96.97
9538;BME280;4807;48.024;11.726;2024-01-07T08:31:32;94330.22;;;1.63;97.28
9538;BME280;4807;48.024;11.726;2024-01-07T08:34:40;94323.69;;;1.75;96.29
9538;BME280;4807;48.024;11.726;2024-01-07T08:37:49;94327.31;;;1.90;95.59
9538;BME280;4807;48.024;11.726;2024-01-07T08:40:57;94333.06;;;1.94;94.33
9538;BME280;4807;48.024;11.726;2024-01-07T08:44:09;94329.13;;;1.98;94.70
9538;BME280;4807;48.024;11.726;2024-01-07T08:47:17;94337.50;;;2.09;94.24
9538;BME280;4807;48.024;11.726;2024-01-07T08:50:27;94342.91;;;2.16;94.29
9538;BME280;4807;48.024;11.726;2024-01-07T08:53:37;94341.59;;;2.12;92.70
9538;BME280;4807;48.024;11.726;2024-01-07T08:56:45;94346.34;;;2.08;92.40
9538;BME280;4807;48.024;11.726;2024-01-07T08:59:54;94351.09;;;2.05;91.89
9538;BME280;4807;48.024;11.726;2024-01-07T09:03:03;94355.38;;;2.06;91.71
9538;BME280;4807;48.024;11.726;2024-01-07T09:06:12;94366.69;;;2.06;92.00
9538;BME280;4807;48.024;11.726;2024-01-07T09:09:20;94362.94;;;2.09;91.90
9538;BME280;4807;48.024;11.726;2024-01-07T09:12:28;94366.97;;;1.79;91.81
9538;BME280;4807;48.024;11.726;2024-01-07T09:15:38;94369.97;;;1.84;92.00
9538;BME280;4807;48.024;11.726;2024-01-07T09:18:46;94371.94;;;1.90;92.64
9538;BME280;4807;48.024;11.726;2024-01-07T09:21:55;94373.09;;;1.96;92.30
9538;BME280;4807;48.024;11.726;2024-01-07T09:25:05;94374.88;;;2.03;92.05
9538;BME280;4807;48.024;11.726;2024-01-07T09:28:13;94377.72;;;2.18;91.50
9538;BME280;4807;48.024;11.726;2024-01-07T09:31:23;94386.41;;;2.18;91.22
9538;BME280;4807;48.024;11.726;2024-01-07T09:34:31;94389.88;;;2.27;91.21
9538;BME280;4807;48.024;11.726;2024-01-07T09:37:40;94400.19;;;2.28;90.08
9538;BME280;4807;48.024;11.726;2024-01-07T09:40:49;94390.19;;;2.24;89.50
9538;BME280;4807;48.024;11.726;2024-01-07T09:43:58;94388.22;;;2.18;89.92
9538;BME280;4807;48.024;11.726;2024-01-07T09:47:12;94382.63;;;2.13;89.57
9538;BME280;4807;48.024;11.726;2024-01-07T09:50:20;94386.72;;;2.07;90.14
9538;BME280;4807;48.024;11.726;2024-01-07T09:53:32;94389.50;;;2.22;90.45
9538;BME280;4807;48.024;11.726;2024-01-07T09:56:50;94386.56;;;2.33;88.83
9538;BME280;4807;48.024;11.726;2024-01-07T10:00:00;94387.88;;;2.37;88.03
9538;BME280;4807;48.024;11.726;2024-01-07T10:03:19;94391.31;;;1.97;88.45
9538;BME280;4807;48.024;11.726;2024-01-07T10:06:27;94393.09;;;2.05;89.11
9538;BME280;4807;48.024;11.726;2024-01-07T10:09:36;94394.59;;;2.07;88.99
9538;BME280;4807;48.024;11.726;2024-01-07T10:12:44;94389.03;;;2.10;89.16
9538;BME280;4807;48.024;11.726;2024-01-07T10:15:54;94387.03;;;2.45;88.51
9538;BME280;4807;48.024;11.726;2024-01-07T10:19:04;94389.84;;;2.51;87.69
9538;BME280;4807;48.024;11.726;2024-01-07T10:22:15;94384.91;;;2.64;87.65
9538;BME280;4807;48.024;11.726;2024-01-07T10:25:24;94385.06;;;2.63;86.24
9538;BME280;4807;48.024;11.726;2024-01-07T10:28:33;94394.28;;;2.51;86.65
9538;BME280;4807;48.024;11.726;2024-01-07T10:31:41;94392.78;;;2.73;86.27
9538;BME280;4807;48.024;11.726;2024-01-07T10:35:02;94391.75;;;2.90;85.94
9538;BME280;4807;48.024;11.726;2024-01-07T10:38:12;94392.06;;;2.95;85.50
9538;BME280;4807;48.024;11.726;2024-01-07T10:41:22;94393.06;;;2.94;84.64
9538;BME280;4807;48.024;11.726;2024-01-07T10:44:33;94391.06;;;3.04;85.19
9538;BME280;4807;48.024;11.726;2024-01-07T10:47:49;94397.47;;;3.01;84.29
9538;BME280;4807;48.024;11.726;2024-01-07T10:51:00;94395.63;;;3.10;84.00
9538;BME280;4807;48.024;11.726;2024-01-07T10:54:13;94392.41;;;2.92;84.44
9538;BME280;4807;48.024;11.726;2024-01-07T10:57:36;94390.34;;;3.18;84.02
9538;BME280;4807;48.024;11.726;2024-01-07T11:00:49;94396.53;;;3.33;83.47
9538;BME280;4807;48.024;11.726;2024-01-07T11:04:03;94394.25;;;3.38;82.62
9538;BME280;4807;48.024;11.726;2024-01-07T11:07:27;94392.06;;;3.42;82.98
9538;BME280;4807;48.024;11.726;2024-01-07T11:10:49;94395.88;;;3.39;82.73
9538;BME280;4807;48.024;11.726;2024-01-07T11:14:00;94399.53;;;3.30;81.42
9538;BME280;4807;48.024;11.726;2024-01-07T11:17:09;94396.84;;;2.91;83.47
9538;BME280;4807;48.024;11.726;2024-01-07T11:20:22;94393.16;;;3.08;84.31
9538;BME280;4807;48.024;11.726;2024-01-07T11:23:36;94394.34;;;3.06;83.91
9538;BME280;4807;48.024;11.726;2024-01-07T11:26:51;94398.94;;;3.12;84.12
9538;BME280;4807;48.024;11.726;2024-01-07T11:30:06;94394.63;;;3.19;83.70
9538;BME280;4807;48.024;11.726;2024-01-07T11:33:15;94398.06;;;3.28;82.88
9538;BME280;4807;48.024;11.726;2024-01-07T11:36:26;94392.34;;;3.16;83.39
9538;BME280;4807;48.024;11.726;2024-01-07T11:39:37;94399.00;;;3.35;82.87
9538;BME280;4807;48.024;11.726;2024-01-07T11:42:45;94392.31;;;3.24;82.50
9538;BME280;4807;48.024;11.726;2024-01-07T11:45:55;94395.19;;;3.06;82.83
9538;BME280;4807;48.024;11.726;2024-01-07T11:49:03;94400.34;;;2.76;82.43
9538;BME280;4807;48.024;11.726;2024-01-07T11:52:13;94402.28;;;2.90;83.48
9538;BME280;4807;48.024;11.726;2024-01-07T11:55:24;94400.94;;;2.94;82.88
9538;BME280;4807;48.024;11.726;2024-01-07T11:58:35;94400.41;;;3.15;82.77
9538;BME280;4807;48.024;11.726;2024-01-07T12:01:47;94404.78;;;2.51;84.76
9538;BME280;4807;48.024;11.726;2024-01-07T12:04:55;94408.00;;;3.01;84.17
9538;BME280;4807;48.024;11.726;2024-01-07T12:08:05;94413.25;;;2.93;82.36
9538;BME280;4807;48.024;11.726;2024-01-07T12:11:16;94405.00;;;3.13;82.85
9538;BME280;4807;48.024;11.726;2024-01-07T12:14:26;94413.75;;;3.05;82.24
9538;BME280;4807;48.024;11.726;2024-01-07T12:17:35;94412.50;;;2.52;84.51
9538;BME280;4807;48.024;11.726;2024-01-07T12:20:55;94420.06;;;2.63;83.74
9538;BME280;4807;48.024;11.726;2024-01-07T12:24:06;94412.81;;;2.65;84.25
9538;BME280;4807;48.024;11.726;2024-01-07T12:27:16;94415.91;;;2.77;83.23
9538;BME280;4807;48.024;11.726;2024-01-07T12:30:27;94416.44;;;2.40;83.63
9538;BME280;4807;48.024;11.726;2024-01-07T12:33:38;94422.00;;;2.29;83.42
9538;BME280;4807;48.024;11.726;2024-01-07T12:36:48;94422.16;;;2.11;83.83
9538;BME280;4807;48.024;11.726;2024-01-07T12:39:58;94427.28;;;2.29;84.68
9538;BME280;4807;48.024;11.726;2024-01-07T12:43:07;94437.13;;;2.19;85.41
9538;BME280;4807;48.024;11.726;2024-01-07T12:46:16;94425.16;;;2.24;84.93
9538;BME280;4807;48.024;11.726;2024-01-07T12:49:25;94445.34;;;2.32;84.59
9538;BME280;4807;48.024;11.726;2024-01-07T12:52:33;94437.94;;;2.36;84.22
9538;BME280;4807;48.024;11.726;2024-01-07T12:55:42;94433.69;;;2.35;84.01
9538;BME280;4807;48.024;11.726;2024-01-07T12:58:52;94446.97;;;2.17;83.87
9538;BME280;4807;48.024;11.726;2024-01-07T13:02:01;94445.59;;;1.97;84.25
9538;BME280;4807;48.024;11.726;2024-01-07T13:05:09;94447.56;;;1.86;85.30
9538;BME280;4807;48.024;11.726;2024-01-07T13:08:18;94461.81;;;1.76;85.40
9538;BME280;4807;48.024;11.726;2024-01-07T13:11:29;94460.03;;;1.84;85.66
9538;BME280;4807;48.024;11.726;2024-01-07T13:14:39;94458.41;;;1.91;86.16
9538;BME280;4807;48.024;11.726;2024-01-07T13:17:49;94461.28;;;1.72;86.26
9538;BME280;4807;48.024;11.726;2024-01-07T13:20:58;94466.44;;;1.90;85.88
9538;BME280;4807;48.024;11.726;2024-01-07T13:24:08;94462.66;;;1.84;85.18
9538;BME280;4807;48.024;11.726;2024-01-07T13:27:17;94479.03;;;1.70;85.58
9538;BME280;4807;48.024;11.726;2024-01-07T13:30:27;94483.09;;;1.73;85.98
9538;BME280;4807;48.024;11.726;2024-01-07T13:33:35;94487.53;;;1.72;86.24
9538;BME280;4807;48.024;11.726;2024-01-07T13:36:44;94485.53;;;1.66;85.86
9538;BME280;4807;48.024;11.726;2024-01-07T13:39:53;94487.22;;;1.75;86.65
9538;BME280;4807;48.024;11.726;2024-01-07T13:43:02;94487.53;;;1.72;86.35
9538;BME280;4807;48.024;11.726;2024-01-07T13:46:13;94484.28;;;1.78;86.46
9538;BME280;4807;48.024;11.726;2024-01-07T13:49:21;94495.44;;;1.80;86.25
9538;BME280;4807;48.024;11.726;2024-01-07T13:52:29;94489.50;;;1.70;86.16
9538;BME280;4807;48.024;11.726;2024-01-07T13:55:38;94498.66;;;1.66;86.75
9538;BME280;4807;48.024;11.726;2024-01-07T13:58:46;94504.47;;;1.44;87.41
9538;BME280;4807;48.024;11.726;2024-01-07T14:01:59;94511.34;;;1.37;87.51
9538;BME280;4807;48.024;11.726;2024-01-07T14:05:07;94504.19;;;1.21;88.87
9538;BME280;4807;48.024;11.726;2024-01-07T14:08:18;94503.75;;;1.34;88.54
9538;BME280;4807;48.024;11.726;2024-01-07T14:11:26;94510.13;;;1.31;89.11
9538;BME280;4807;48.024;11.726;2024-01-07T14:14:36;94513.03;;;1.20;88.67
9538;BME280;4807;48.024;11.726;2024-01-07T14:17:45;94516.38;;;1.04;89.50
9538;BME280;4807;48.024;11.726;2024-01-07T14:20:54;94520.06;;;1.20;90.51
9538;BME280;4807;48.024;11.726;2024-01-07T14:24:03;94525.66;;;1.25;89.86
9538;BME280;4807;48.024;11.726;2024-01-07T14:27:11;94531.63;;;1.35;89.78
9538;BME280;4807;48.024;11.726;2024-01-07T14:30:21;94532.84;;;1.23;89.38
9538;BME280;4807;48.024;11.726;2024-01-07T14:33:31;94536.78;;;1.19;89.85
9538;BME280;4807;48.024;11.726;2024-01-07T14:36:40;94534.28;;;0.91;89.63
9538;BME280;4807;48.024;11.726;2024-01-07T14:39:50;94545.66;;;0.82;90.15
9538;BME280;4807;48.024;11.726;2024-01-07T14:43:02;94546.34;;;0.84;90.84
9538;BME280;4807;48.024;11.726;2024-01-07T14:46:11;94553.09;;;0.87;91.00
9538;BME280;4807;48.024;11.726;2024-01-07T14:49:21;94553.59;;;0.90;91.12
9538;BME280;4807;48.024;11.726;2024-01-07T14:55:59;94568.22;;;0.75;91.22
9538;BME280;4807;48.024;11.726;2024-01-07T14:59:08;94565.91;;;0.72;91.46
9538;BME280;4807;48.024;11.726;2024-01-07T15:02:18;94570.13;;;0.65;91.80
9538;BME280;4807;48.024;11.726;2024-01-07T15:05:33;94570.78;;;0.31;91.69
9538;BME280;4807;48.024;11.726;2024-01-07T15:08:42;94573.22;;;0.15;92.94
9538;BME280;4807;48.024;11.726;2024-01-07T15:11:51;94579.56;;;0.13;93.00
9538;BME280;4807;48.024;11.726;2024-01-07T15:15:00;94573.78;;;0.09;93.31
9538;BME280;4807;48.024;11.726;2024-01-07T15:18:10;94589.78;;;0.06;93.49
9538;BME280;4807;48.024;11.726;2024-01-07T15:21:21;94588.00;;;0.07;94.07
9538;BME280;4807;48.024;11.726;2024-01-07T15:24:30;94589.47;;;0.09;93.48
9538;BME280;4807;48.024;11.726;2024-01-07T15:27:38;94593.28;;;-0.03;93.94
9538;BME280;4807;48.024;11.726;2024-01-07T15:30:47;94589.19;;;-0.15;93.84
9538;BME280;4807;48.024;11.726;2024-01-07T15:33:56;94598.69;;;-0.14;94.61
9538;BME280;4807;48.024;11.726;2024-01-07T15:37:06;94609.25;;;-0.06;95.08
9538;BME280;4807;48.024;11.726;2024-01-07T15:40:17;94606.41;;;-0.13;94.08
9538;BME280;4807;48.024;11.726;2024-01-07T15:43:25;94604.72;;;-0.04;94.68
9538;BME280;4807;48.024;11.726;2024-01-07T15:46:34;94625.16;;;-0.17;94.24
9538;BME280;4807;48.024;11.726;2024-01-07T15:49:45;94620.75;;;-0.17;94.19
9538;BME280;4807;48.024;11.726;2024-01-07T15:53:14;94620.03;;;-0.09;94.17
9538;BME280;4807;48.024;11.726;2024-01-07T15:56:32;94626.19;;;-0.01;95.03
9538;BME280;4807;48.024;11.726;2024-01-07T15:59:41;94628.41;;;-0.06;93.98
9538;BME280;4807;48.024;11.726;2024-01-07T16:02:49;94634.19;;;-0.02;94.70
9538;BME280;4807;48.024;11.726;2024-01-07T16:05:57;94634.59;;;-0.07;94.02
9538;BME280;4807;48.024;11.726;2024-01-07T16:09:08;94643.28;;;-0.06;94.88
9538;BME280;4807;48.024;11.726;2024-01-07T16:12:17;94644.66;;;-0.02;94.07
9538;BME280;4807;48.024;11.726;2024-01-07T16:15:25;94650.16;;;-0.05;94.35
9538;BME280;4807;48.024;11.726;2024-01-07T16:18:34;94652.16;;;-0.17;93.81
9538;BME280;4807;48.024;11.726;2024-01-07T16:21:43;94661.78;;;-0.17;94.37
9538;BME280;4807;48.024;11.726;2024-01-07T16:25:05;94662.63;;;-0.17;94.75
9538;BME280;4807;48.024;11.726;2024-01-07T16:28:14;94668.00;;;-0.18;94.41
9538;BME280;4807;48.024;11.726;2024-01-07T16:31:22;94668.72;;;-0.26;94.34
9538;BME280;4807;48.024;11.726;2024-01-07T16:34:31;94684.94;;;-0.32;94.52
9538;BME280;4807;48.024;11.726;2024-01-07T16:37:40;94679.28;;;-0.18;94.88
9538;BME280;4807;48.024;11.726;2024-01-07T16:40:50;94683.69;;;-0.18;95.13
9538;BME280;4807;48.024;11.726;2024-01-07T16:44:00;94682.19;;;-0.30;94.39
9538;BME280;4807;48.024;11.726;2024-01-07T16:47:09;94687.16;;;-0.27;94.54
9538;BME280;4807;48.024;11.726;2024-01-07T16:50:20;94696.53;;;-0.34;95.11
9538;BME280;4807;48.024;11.726;2024-01-07T16:53:32;94708.06;;;-0.27;94.99
9538;BME280;4807;48.024;11.726;2024-01-07T16:56:47;94702.28;;;-0.31;95.78
9538;BME280;4807;48.024;11.726;2024-01-07T17:00:11;94705.03;;;-0.23;95.63
9538;BME280;4807;48.024;11.726;2024-01-07T17:03:23;94711.50;;;-0.17;95.50
9538;BME280;4807;48.024;11.726;2024-01-07T17:06:32;94713.97;;;-0.16;94.91
9538;BME280;4807;48.024;11.726;2024-01-07T17:09:42;94716.06;;;-0.19;95.27